createdAt,value
2019-06-26T00:02:19.955Z,99.90
2019-06-26T00:04:50.691Z,99.90
2019-06-26T00:29:41.469Z,99.90
2019-06-26T00:32:11.382Z,99.90
2019-06-26T00:34:41.303Z,99.90
2019-06-26T00:37:10.181Z,99.90
2019-06-26T00:39:40.116Z,99.90
2019-06-26T00:42:10.728Z,99.90
2019-06-26T00:44:39.603Z,99.90
2019-06-26T00:47:10.187Z,99.90
2019-06-26T00:49:38.977Z,99.90
2019-06-26T00:52:08.872Z,99.90
2019-06-26T00:54:39.499Z,99.90
2019-06-26T00:57:10.109Z,99.90
2019-06-26T00:59:40.777Z,99.90
2019-06-26T01:02:10.691Z,99.90
2019-06-26T01:04:45.435Z,99.90
2019-06-26T01:07:15.479Z,99.90
2019-06-26T01:09:46.221Z,99.90
2019-06-26T01:12:17.025Z,99.90
2019-06-26T01:14:47.504Z,99.90
2019-06-26T01:17:17.445Z,99.90
2019-06-26T01:19:48.145Z,99.90
2019-06-26T01:22:19.816Z,99.90
2019-06-26T01:24:49.822Z,99.90
2019-06-26T01:27:20.292Z,99.90
2019-06-26T01:29:50.356Z,99.90
2019-06-26T01:32:20.476Z,99.90
2019-06-26T01:34:50.467Z,99.90
2019-06-26T01:37:20.358Z,99.90
2019-06-26T01:39:51.103Z,99.90
2019-06-26T01:42:20.871Z,99.90
2019-06-26T01:44:51.715Z,99.90
2019-06-26T01:47:22.130Z,99.90
2019-06-26T01:49:52.573Z,99.90
2019-06-26T01:52:23.370Z,99.90
2019-06-26T01:54:53.834Z,99.90
2019-06-26T01:57:23.724Z,99.90
2019-06-26T01:59:54.366Z,99.90
2019-06-26T02:02:24.936Z,99.90
2019-06-26T02:04:55.576Z,99.90
2019-06-26T02:07:25.573Z,99.90
2019-06-26T02:09:56.314Z,99.90
2019-06-26T02:12:30.130Z,99.90
2019-06-26T02:15:00.024Z,99.90
2019-06-26T02:17:30.798Z,99.90
2019-06-26T02:20:00.605Z,99.90
2019-06-26T02:22:31.176Z,99.90
2019-06-26T02:25:01.840Z,99.90
2019-06-26T02:27:32.533Z,99.90
2019-06-26T02:30:03.204Z,99.90
2019-06-26T02:32:33.169Z,99.90
2019-06-26T02:35:03.111Z,99.90
2019-06-26T02:37:31.978Z,99.90
2019-06-26T02:40:04.870Z,99.90
2019-06-26T02:42:37.560Z,99.90
2019-06-26T02:45:23.274Z,99.90
2019-06-26T02:48:01.890Z,99.90
2019-06-26T02:50:49.361Z,99.90
2019-06-26T02:53:18.234Z,99.90
2019-06-26T02:55:48.822Z,99.90
2019-06-26T02:58:19.568Z,99.90
2019-06-26T03:00:50.959Z,99.90
2019-06-26T03:03:21.737Z,99.90
2019-06-26T03:05:52.234Z,99.90
2019-06-26T03:08:22.035Z,99.90
2019-06-26T03:10:52.825Z,99.90
2019-06-26T03:13:22.668Z,99.90
2019-06-26T03:15:52.510Z,99.90
2019-06-26T03:18:22.557Z,99.90
2019-06-26T03:20:57.044Z,99.90
2019-06-26T03:23:27.364Z,99.90
2019-06-26T03:25:57.235Z,99.90
2019-06-26T03:28:27.886Z,99.90
2019-06-26T03:30:57.822Z,99.90
2019-06-26T03:33:27.684Z,99.90
2019-06-26T03:35:58.298Z,99.90
2019-06-26T03:38:28.268Z,99.90
2019-06-26T03:40:59.041Z,99.90
2019-06-26T03:43:28.602Z,99.90
2019-06-26T03:45:59.394Z,99.90
2019-06-26T03:48:29.770Z,99.90
2019-06-26T03:51:00.434Z,99.90
2019-06-26T03:53:30.774Z,99.90
2019-06-26T03:56:00.673Z,99.90
2019-06-26T03:58:31.355Z,99.90
2019-06-26T04:01:03.451Z,99.90
2019-06-26T04:03:33.840Z,99.90
2019-06-26T04:06:05.496Z,99.90
2019-06-26T04:08:35.576Z,99.90
2019-06-26T04:11:06.074Z,99.90
2019-06-26T04:13:36.109Z,99.90
2019-06-26T04:16:07.802Z,99.90
2019-06-26T04:18:37.795Z,99.90
2019-06-26T04:21:09.647Z,99.90
2019-06-26T04:23:39.504Z,99.90
2019-06-26T04:26:09.471Z,99.90
2019-06-26T04:28:39.537Z,99.90
2019-06-26T04:31:13.186Z,99.90
2019-06-26T04:33:43.122Z,99.90
2019-06-26T04:36:14.893Z,99.90
2019-06-26T04:38:45.065Z,99.90
2019-06-26T04:41:15.650Z,99.90
2019-06-26T04:43:47.497Z,99.90
2019-06-26T04:46:25.728Z,99.90
2019-06-26T04:48:57.376Z,99.90
2019-06-26T04:51:26.268Z,99.90
2019-06-26T04:53:56.961Z,99.90
2019-06-26T04:56:26.629Z,99.90
2019-06-26T04:58:57.395Z,99.90
2019-06-26T05:01:27.188Z,99.90
2019-06-26T05:03:57.140Z,99.90
2019-06-26T05:06:28.827Z,99.90
2019-06-26T05:08:58.790Z,99.90
2019-06-26T05:11:28.785Z,99.90
2019-06-26T05:13:59.578Z,99.90
2019-06-26T05:16:29.271Z,99.90
2019-06-26T05:19:00.060Z,99.90
2019-06-26T05:21:29.952Z,99.90
2019-06-26T05:24:00.547Z,99.90
2019-06-26T05:26:31.135Z,99.90
2019-06-26T05:29:01.705Z,99.90
2019-06-26T05:31:31.522Z,99.90
2019-06-26T05:34:02.383Z,99.90
2019-06-26T05:36:32.032Z,99.90
2019-06-26T05:39:02.650Z,99.90
2019-06-26T05:41:32.731Z,99.90
2019-06-26T05:44:02.659Z,99.90
2019-06-26T05:46:32.479Z,99.90
2019-06-26T05:49:03.121Z,99.90
2019-06-26T05:51:33.086Z,99.90
2019-06-26T05:54:04.998Z,99.90
2019-06-26T05:56:36.877Z,99.90
2019-06-26T05:59:07.614Z,99.90
2019-06-26T06:01:38.166Z,99.90
2019-06-26T06:04:07.778Z,99.90
2019-06-26T06:06:41.468Z,99.90
2019-06-26T06:09:07.382Z,99.90
2019-06-26T06:11:37.251Z,99.90
2019-06-26T06:14:09.945Z,99.90
2019-06-26T06:16:47.309Z,99.90
2019-06-26T06:19:11.904Z,99.90
2019-06-26T06:21:42.569Z,99.90
2019-06-26T06:24:13.190Z,99.90
2019-06-26T06:26:43.959Z,99.90
2019-06-26T06:29:14.048Z,99.90
2019-06-26T06:31:44.668Z,99.90
2019-06-26T06:34:15.389Z,99.90
2019-06-26T06:36:45.925Z,99.90
2019-06-26T06:39:15.548Z,99.90
2019-06-26T06:41:45.510Z,99.90
2019-06-26T06:44:15.707Z,99.90
2019-06-26T06:46:59.483Z,99.90
2019-06-26T06:49:16.139Z,99.90
2019-06-26T06:51:46.151Z,1.00
2019-06-26T06:54:16.823Z,1.00
2019-06-26T06:56:48.629Z,1.00
2019-06-26T06:59:20.582Z,1.00
2019-06-26T07:36:40.975Z,84.80
2019-06-26T07:39:09.785Z,51.80
2019-06-26T07:41:40.487Z,51.60
2019-06-26T07:44:11.228Z,51.40
2019-06-26T07:46:41.649Z,50.50
2019-06-26T07:49:11.493Z,50.40
2019-06-26T07:54:08.888Z,49.80
2019-06-26T08:11:38.983Z,49.70
2019-06-26T10:28:30.346Z,46.70
2019-06-26T10:31:00.219Z,44.80
2019-06-26T10:33:32.158Z,44.70
2019-06-26T10:36:02.736Z,46.60
2019-06-26T10:38:34.305Z,46.20
2019-06-26T10:41:04.180Z,48.40
2019-06-26T10:43:34.757Z,49.50
2019-06-26T10:46:05.163Z,49.70
2019-06-26T10:48:34.027Z,51.30
2019-06-26T10:51:05.825Z,51.60
2019-06-26T10:53:35.729Z,52.30
2019-06-26T10:56:06.028Z,50.00
2019-06-26T10:58:36.636Z,51.20
2019-06-26T11:01:05.485Z,52.70
2019-06-26T11:03:35.321Z,53.00
2019-06-26T11:06:05.649Z,53.50
2019-06-26T11:08:36.418Z,53.50
2019-06-26T11:11:05.040Z,54.00
2019-06-26T11:13:33.890Z,53.80
2019-06-26T11:16:03.762Z,53.00
2019-06-26T11:18:35.014Z,52.50
2019-06-26T11:21:06.840Z,53.40
2019-06-26T11:23:36.685Z,54.90
2019-06-26T11:26:05.567Z,55.10
2019-06-26T11:28:37.380Z,54.80
2019-06-26T11:31:07.244Z,55.50
2019-06-26T11:33:38.891Z,54.40
2019-06-26T11:36:10.605Z,54.60
2019-06-26T11:38:39.498Z,55.10
2019-06-26T11:41:10.249Z,54.90
2019-06-26T11:43:40.556Z,54.70
2019-06-26T11:46:12.452Z,55.40
2019-06-26T11:48:44.271Z,55.50
2019-06-26T11:51:13.119Z,55.80
2019-06-26T11:53:43.802Z,56.00
2019-06-26T11:56:15.168Z,56.30
2019-06-26T11:58:49.237Z,54.90
2019-06-26T12:01:18.142Z,56.60
2019-06-26T12:03:48.480Z,55.40
2019-06-26T12:06:19.397Z,55.60
2019-06-26T12:08:49.935Z,57.20
2019-06-26T12:11:21.746Z,56.80
2019-06-26T12:13:53.644Z,55.60
2019-06-26T12:16:23.610Z,56.30
2019-06-26T12:18:54.312Z,56.40
2019-06-26T12:21:24.078Z,55.70
2019-06-26T12:23:56.912Z,55.90
2019-06-26T12:26:28.389Z,56.50
2019-06-26T12:28:59.158Z,55.50
2019-06-26T12:31:28.916Z,55.80
2019-06-26T12:33:59.015Z,56.50
2019-06-26T12:36:29.832Z,55.70
2019-06-26T12:39:02.277Z,55.90
2019-06-26T12:41:33.660Z,57.90
2019-06-26T12:44:04.232Z,56.00
2019-06-26T12:46:37.647Z,57.60
2019-06-26T12:49:07.264Z,56.80
2019-06-26T12:51:37.184Z,57.10
2019-06-26T12:54:07.148Z,56.80
2019-06-26T12:56:37.792Z,56.70
2019-06-26T12:59:08.338Z,56.30
2019-06-26T13:01:39.054Z,57.00
2019-06-26T13:04:08.851Z,57.50
2019-06-26T13:06:39.388Z,57.10
2019-06-26T13:09:10.880Z,56.80
2019-06-26T13:11:41.421Z,58.40
2019-06-26T13:14:12.193Z,57.50
2019-06-26T13:16:42.092Z,57.60
2019-06-26T13:19:12.378Z,57.00
2019-06-26T13:21:43.112Z,57.50
2019-06-26T13:24:12.971Z,57.40
2019-06-26T13:26:43.600Z,58.00
2019-06-26T13:29:14.326Z,58.20
2019-06-26T13:31:44.671Z,58.10
2019-06-26T13:34:15.407Z,58.20
2019-06-26T13:36:45.002Z,58.20
2019-06-26T13:39:15.047Z,58.30
2019-06-26T13:41:44.963Z,58.80
2019-06-26T13:44:15.253Z,58.10
2019-06-26T13:46:45.187Z,58.20
2019-06-26T13:49:16.488Z,58.10
2019-06-26T13:51:45.531Z,58.00
2019-06-26T13:54:16.225Z,58.40
2019-06-26T13:56:46.791Z,57.90
2019-06-26T13:59:16.660Z,57.50
2019-06-26T14:01:45.516Z,58.00
2019-06-26T14:04:15.494Z,57.70
2019-06-26T14:06:47.063Z,57.80
2019-06-26T14:09:17.655Z,57.50
2019-06-26T14:11:48.324Z,57.60
2019-06-26T14:14:20.528Z,57.00
2019-06-26T14:16:48.464Z,57.40
2019-06-26T14:19:19.073Z,57.80
2019-06-26T14:21:49.672Z,57.40
2019-06-26T14:24:19.589Z,57.00
2019-06-26T14:26:50.362Z,58.00
2019-06-26T14:29:21.223Z,58.00
2019-06-26T14:31:52.442Z,57.90
2019-06-26T14:34:22.308Z,57.90
2019-06-26T14:36:53.050Z,57.60
2019-06-26T14:39:23.343Z,57.30
2019-06-26T14:41:55.048Z,57.80
2019-06-26T14:44:25.004Z,57.70
2019-06-26T14:46:56.772Z,58.40
2019-06-26T14:49:27.438Z,58.80
2019-06-26T14:51:59.060Z,58.70
2019-06-26T14:54:29.711Z,58.50
2019-06-26T14:56:59.889Z,59.10
2019-06-26T14:59:30.607Z,59.60
2019-06-26T15:02:01.251Z,59.60
2019-06-26T15:04:32.031Z,59.30
2019-06-26T15:07:04.510Z,59.70
2019-06-26T15:09:34.531Z,60.10
2019-06-26T15:12:05.225Z,60.50
2019-06-26T15:14:35.165Z,59.90
2019-06-26T15:17:05.033Z,59.60
2019-06-26T15:19:36.644Z,59.50
2019-06-26T15:22:05.497Z,59.40
2019-06-26T15:24:35.434Z,60.20
2019-06-26T15:27:06.826Z,59.50
2019-06-26T15:29:37.172Z,59.60
2019-06-26T15:32:07.838Z,59.70
2019-06-26T15:34:38.382Z,60.20
2019-06-26T15:37:10.172Z,60.80
2019-06-26T15:39:40.966Z,60.70
2019-06-26T15:42:11.335Z,61.30
2019-06-26T15:44:41.176Z,61.60
2019-06-26T15:47:11.118Z,61.50
2019-06-26T15:49:43.012Z,61.40
2019-06-26T15:52:15.383Z,62.50
2019-06-26T15:54:44.372Z,63.00
2019-06-26T15:57:14.713Z,63.20
2019-06-26T15:59:46.362Z,63.50
2019-06-26T16:02:15.286Z,63.30
2019-06-26T16:04:45.168Z,63.20
2019-06-26T16:07:14.052Z,63.50
2019-06-26T16:09:42.888Z,62.60
2019-06-26T16:12:11.778Z,62.90
2019-06-26T16:14:43.406Z,63.00
2019-06-26T16:17:33.407Z,63.20
2019-06-26T16:20:04.174Z,64.10
2019-06-26T16:22:35.966Z,63.40
2019-06-26T16:25:06.306Z,63.00
2019-06-26T16:31:05.143Z,63.40
2019-06-26T16:33:41.343Z,63.50
2019-06-26T16:36:10.269Z,63.70
2019-06-26T16:38:40.127Z,64.10
2019-06-26T16:41:09.684Z,64.50
2019-06-26T16:43:41.933Z,64.40
2019-06-26T16:46:14.896Z,65.00
2019-06-26T16:48:45.532Z,65.40
2019-06-26T16:51:15.584Z,65.70
2019-06-26T16:53:45.549Z,65.70
2019-06-26T16:56:17.488Z,65.90
2019-06-26T16:58:46.378Z,65.80
2019-06-26T17:01:16.198Z,65.60
2019-06-26T17:03:47.872Z,65.70
2019-06-26T17:06:17.828Z,66.00
2019-06-26T17:08:48.403Z,66.10
2019-06-26T17:11:20.180Z,66.50
2019-06-26T17:13:50.077Z,66.40
2019-06-26T17:16:20.733Z,66.80
2019-06-26T17:18:50.576Z,66.80
2019-06-26T17:21:46.591Z,66.70
2019-06-26T17:24:15.087Z,66.90
2019-06-26T17:26:43.971Z,67.30
2019-06-26T17:29:12.926Z,68.40
2019-06-26T17:31:41.809Z,67.40
2019-06-26T17:34:10.693Z,67.80
2019-06-26T17:36:39.540Z,67.90
2019-06-26T17:39:08.416Z,67.90
2019-06-26T17:41:39.032Z,68.70
2019-06-26T17:44:09.792Z,68.90
2019-06-26T17:46:38.462Z,69.40
2019-06-26T17:49:11.564Z,69.90
2019-06-26T17:51:41.408Z,70.10
2019-06-26T17:54:14.416Z,70.70
2019-06-26T17:56:46.037Z,70.70
2019-06-26T17:59:14.890Z,71.20
2019-06-26T18:01:43.790Z,71.30
2019-06-26T18:04:12.617Z,71.60
2019-06-26T18:06:41.475Z,72.10
2019-06-26T18:09:12.349Z,72.40
2019-06-26T18:11:59.547Z,73.80
2019-06-26T18:14:28.418Z,75.00
2019-06-26T18:18:10.131Z,75.60
2019-06-26T18:20:39.177Z,77.30
2019-06-26T18:23:08.197Z,78.50
2019-06-26T18:25:37.066Z,79.10
2019-06-26T18:28:05.954Z,80.10
2019-06-26T18:30:34.801Z,81.10
2019-06-26T18:33:03.684Z,81.00
2019-06-26T18:35:32.536Z,81.10
2019-06-26T18:38:04.429Z,82.30
2019-06-26T18:40:33.322Z,83.30
2019-06-26T18:43:02.173Z,83.60
2019-06-26T18:45:31.030Z,84.90
2019-06-26T18:47:59.924Z,85.70
2019-06-26T18:50:28.792Z,86.10
2019-06-26T18:52:57.636Z,86.90
2019-06-26T18:55:26.539Z,87.60
2019-06-26T18:57:55.388Z,88.40
2019-06-26T19:00:24.232Z,89.00
2019-06-26T19:02:53.124Z,90.20
2019-06-26T19:05:21.977Z,90.40
2019-06-26T19:07:50.820Z,90.80
2019-06-26T19:10:20.115Z,91.30
2019-06-26T19:12:48.957Z,91.80
2019-06-26T19:15:18.001Z,92.30
2019-06-26T19:17:46.892Z,93.10
2019-06-26T19:20:15.748Z,93.80
2019-06-26T19:22:47.443Z,94.60
2019-06-26T19:25:15.520Z,95.70
2019-06-26T19:27:44.401Z,96.60
2019-06-26T19:30:13.416Z,97.70
2019-06-26T19:32:42.313Z,98.60
2019-06-26T19:35:19.520Z,99.30
2019-06-26T19:37:42.915Z,99.90
2019-06-26T19:40:13.011Z,99.90
2019-06-26T19:42:48.220Z,99.90
2019-06-26T19:45:17.699Z,99.90
2019-06-26T19:47:49.253Z,99.90
2019-06-26T19:50:23.157Z,99.90
2019-06-26T19:52:49.473Z,99.90
2019-06-26T19:55:18.426Z,99.90
2019-06-26T19:57:47.273Z,99.90
2019-06-26T20:00:17.569Z,99.90
2019-06-26T20:02:46.440Z,99.90
2019-06-26T20:05:15.278Z,99.90
2019-06-26T20:07:44.264Z,99.90
2019-06-26T20:10:14.926Z,99.90
2019-06-26T20:12:43.850Z,99.90
2019-06-26T20:15:12.844Z,99.90
2019-06-26T20:17:41.694Z,99.90
2019-06-26T20:20:11.005Z,99.90
2019-06-26T20:22:39.880Z,99.90
2019-06-26T20:25:09.642Z,99.90
2019-06-26T20:27:38.753Z,99.90
2019-06-26T20:30:10.105Z,99.90
2019-06-26T20:32:39.192Z,99.90
2019-06-26T20:35:08.146Z,99.90
2019-06-26T20:37:37.044Z,99.90
2019-06-26T20:40:07.599Z,99.90
2019-06-26T20:42:36.447Z,99.90
2019-06-26T20:45:06.835Z,99.90
2019-06-26T20:47:35.789Z,99.90
2019-06-26T20:50:06.551Z,99.90
2019-06-26T20:52:37.952Z,99.90
2019-06-26T20:55:07.403Z,99.90
2019-06-26T20:57:36.327Z,99.90
2019-06-26T21:00:06.959Z,99.90
2019-06-26T21:02:35.942Z,99.90
2019-06-26T21:05:06.964Z,99.90
2019-06-26T21:07:41.883Z,99.90
2019-06-26T21:10:12.179Z,99.90
2019-06-26T21:12:42.147Z,99.90
2019-06-26T21:15:13.775Z,99.90
2019-06-26T21:17:47.520Z,99.90
2019-06-26T21:20:20.835Z,99.90
2019-06-26T21:22:51.552Z,99.90
2019-06-26T21:25:21.195Z,99.90
2019-06-26T21:27:51.941Z,99.90
2019-06-26T21:30:26.807Z,99.90
2019-06-26T21:32:57.425Z,99.90
2019-06-26T21:35:27.343Z,99.90
2019-06-26T21:37:57.907Z,99.90
2019-06-26T21:40:28.599Z,99.90
2019-06-26T21:42:59.342Z,99.90
2019-06-26T21:45:29.032Z,99.90
2019-06-26T21:47:59.058Z,99.90
2019-06-26T21:50:29.675Z,99.90
2019-06-26T21:53:00.270Z,99.90
2019-06-26T21:55:34.347Z,99.90
2019-06-26T21:58:00.825Z,99.90
2019-06-26T22:00:32.748Z,99.90
2019-06-26T22:03:04.957Z,99.90
2019-06-26T22:05:35.450Z,99.90
2019-06-26T22:08:06.884Z,99.90
2019-06-26T22:10:38.737Z,99.90
2019-06-26T22:13:08.527Z,99.90
2019-06-26T22:15:40.420Z,99.90
2019-06-26T22:18:11.976Z,99.90
2019-06-26T22:20:42.557Z,99.90
2019-06-26T22:23:12.972Z,99.90
2019-06-26T22:25:50.751Z,99.90
2019-06-26T22:28:14.181Z,99.90
2019-06-26T22:30:44.316Z,99.90
2019-06-26T22:33:13.173Z,99.90
2019-06-26T22:35:43.497Z,99.90
2019-06-26T22:38:13.554Z,99.90
2019-06-26T22:40:43.569Z,99.90
2019-06-26T22:43:13.464Z,99.90
2019-06-26T22:45:42.332Z,99.90
2019-06-26T22:48:12.272Z,99.90
2019-06-26T22:50:42.992Z,99.90
2019-06-26T22:53:12.835Z,99.90
2019-06-26T22:55:43.197Z,99.90
2019-06-26T22:58:13.043Z,99.90
2019-06-26T23:00:43.062Z,99.90
2019-06-26T23:03:13.080Z,99.90
2019-06-26T23:05:43.723Z,99.90
2019-06-26T23:08:14.336Z,99.90
2019-06-26T23:10:44.237Z,99.90
2019-06-26T23:13:14.102Z,99.90
2019-06-26T23:15:44.145Z,99.90
2019-06-26T23:18:14.235Z,99.90
2019-06-26T23:20:44.077Z,99.90
2019-06-26T23:23:14.168Z,99.90
2019-06-26T23:25:44.165Z,99.90
2019-06-26T23:28:14.855Z,99.90
2019-06-26T23:30:45.419Z,99.90
2019-06-26T23:33:15.388Z,99.90
2019-06-26T23:35:45.404Z,99.90
2019-06-26T23:38:15.323Z,99.90
2019-06-26T23:40:45.942Z,99.90
2019-06-26T23:43:14.785Z,99.90
2019-06-26T23:45:46.448Z,99.90
2019-06-26T23:48:16.443Z,99.90
2019-06-26T23:50:46.488Z,99.90
2019-06-26T23:53:15.469Z,99.90
2019-06-26T23:55:47.871Z,99.90
2019-06-26T23:58:16.745Z,99.90
